Latest Coastal Weather Observations for Wilsons Promontory

IDT60701

Issued at 12:15 pm EDT Sunday 26 October 2014 (issued every 10 minutes, with the page automatically refreshed every 10 minutes)

About coastal observations | Map of coastal stations | Coastal observations for TAS | Marine services | Other Formats
Station Details ID: 085096 Name: WILSONS PROMONTORY LIGHTHOUSE Lat: -39.13 Lon: 146.42 Height: 95.0 m
Data from the previous 72 hours. | See also: Recent months at Wilsons Promontory
Date/Time
EDT
Temp

°C
Wind Pressure Rain
since 9am
mm
Weather Cloud Vis
km
Sea
Height
m
Swell
Dir
 
Speed
knots
Gust
knots
hPa Trend Height
m
Period
s
Dir
26/12:00pm 13.4 W 15 21 1012.7 - 0.0 - - - - - - -
26/11:30am 13.4 W 12 17 1013.2 - 0.0 - - - - - - -
26/11:00am 13.4 W 13 17 1013.5 - 0.0 - - - - - - -
26/10:30am 13.4 W 13 17 1013.5 - 0.0 - - - - - - -
26/10:00am 13.3 W 11 14 1013.6 - 0.0 - - - - - - -
26/09:30am 13.1 W 11 15 1013.6 - 0.0 - - - - - - -
26/09:00am 13.0 WSW 10 14 1013.4 - 0.0 - - - - - - -
26/08:30am 12.9 W 11 13 1013.3 - 0.0 - - - - - - -
26/08:00am 12.7 W 11 14 1013.1 - 0.0 - - - - - - -
26/07:30am 12.4 W 10 13 1012.9 - 0.0 - - - - - - -
26/07:00am 12.1 WNW 12 14 1012.9 - 0.0 - - - - - - -
26/06:30am 12.1 W 11 14 1012.7 - 0.0 - - - - - - -
26/06:00am 12.5 ENE 3 5 1012.5 - 0.0 - - - - - - -
26/05:30am 12.1 SSW 6 9 1012.5 - 0.0 - - - - - - -
26/05:00am 12.1 WSW 11 15 1012.4 - 0.0 - - - - - - -
26/04:30am 12.0 WSW 10 13 1012.3 - 0.0 - - - - - - -
26/04:00am 12.2 WSW 7 11 1012.4 - 0.0 - - - - - - -
26/03:30am 12.1 W 8 10 1012.7 - 0.0 - - - - - - -
26/03:00am 12.2 W 10 11 1013.0 - 0.0 - - - - - - -
26/02:30am 12.3 W 8 10 1013.4 - 0.0 - - - - - - -
26/02:00am 12.3 WNW 3 5 1013.7 - 0.0 - - - - - - -
26/01:30am 12.1 NNE 6 8 1014.2 - 0.0 - - - - - - -
26/01:00am 12.2 NNE 5 7 1014.8 - 0.0 - - - - - - -
26/12:30am 12.5 NNE 4 6 1015.4 - 0.0 - - - - - - -
26/12:00am 12.7 N 3 6 1015.6 - 0.0 - - - - - - -
 
Date/Time
EDT
Temp

°C
Wind Pressure Rain
since 9am
mm
Weather Cloud Vis
km
Sea
Height
m
Swell
Dir
 
Speed
knots
Gust
knots
hPa Trend Height
m
Period
s
Dir
25/11:30pm 12.8 NNE 4 7 1015.8 - 0.0 - - - - - - -
25/11:00pm 13.0 NNE 2 5 1016.0 - 0.0 - - - - - - -
25/10:30pm 13.2 NNW 1 5 1016.0 - 0.0 - - - - - - -
25/10:00pm 13.2 NW 4 6 1016.0 - 0.0 - - - - - - -
25/09:30pm 13.2 NW 4 7 1016.3 - 0.0 - - - - - - -
25/09:00pm 13.2 W 9 11 1016.3 - 0.0 - - - - - - -
25/08:30pm 13.4 W 7 10 1015.9 - 0.0 - - - - - - -
25/08:00pm 13.4 W 10 13 1015.7 - 0.0 - - - - - - -
25/07:30pm 13.3 WSW 11 13 1015.4 - 0.0 - - - - - - -
25/07:00pm 13.5 SW 12 15 1015.2 - 0.0 - - - - - - -
25/06:30pm 13.4 SSW 4 7 1014.9 - 0.0 - - - - - - -
25/06:00pm 13.5 NNE 4 6 1014.9 - 0.0 - - - - - - -
25/05:30pm 13.8 SSW 8 14 1014.9 - 0.0 - - - - - - -
25/05:00pm 14.0 SW 13 15 1014.9 - 0.0 - - - - - - -
25/04:30pm 14.2 SW 15 16 1014.8 - 0.0 - - - - - - -
25/04:00pm 14.1 SW 13 16 1014.8 - 0.0 - - - - - - -
25/03:30pm 14.0 WSW 14 16 1015.1 - 0.0 - - - - - - -
25/03:00pm 14.0 WSW 17 20 1015.1 - 0.0 - - - - - - -
25/02:30pm 14.5 WSW 15 19 1015.3 - 0.0 - - - - - - -
25/02:00pm 14.5 WSW 19 21 1015.3 - 0.0 - - - - - - -
25/01:30pm 14.6 WSW 19 22 1015.0 - 0.0 - - - - - - -
25/01:00pm 15.3 W 16 20 1015.3 - 0.0 - - - - - - -
25/12:30pm 15.2 W 19 25 1015.3 - 0.0 - - - - - - -
25/12:00pm 15.2 W 15 22 1015.7 - 0.0 - - - - - - -
25/11:30am 15.6 W 14 24 1015.9 - 0.0 - - - - - - -
25/11:00am 15.3 W 15 22 1016.3 - 0.0 - - - - - - -
25/10:30am 14.8 W 16 21 1016.6 - 0.0 - - - - - - -
25/10:00am 14.4 W 16 23 1016.9 - 0.0 - - - - - - -
25/09:30am 14.1 W 13 19 1016.6 - 0.0 - - - - - - -
25/09:00am 13.8 W 15 22 1016.7 - 0.0 - - - - - - -
25/08:30am 13.7 W 12 18 1016.7 - 0.0 - - - - - - -
25/08:00am 13.5 W 13 18 1016.3 - 0.0 - - - - - - -
25/07:30am 13.3 W 14 21 1015.8 - 0.0 - - - - - - -
25/07:00am 13.1 W 17 23 1015.4 - 0.0 - - - - - - -
25/06:30am 13.1 W 14 22 1015.2 - 0.0 - - - - - - -
25/06:00am 13.2 W 18 25 1014.8 - 0.0 - - - - - - -
25/05:30am 13.2 W 19 26 1014.4 - 0.0 - - - - - - -
25/05:01am 13.2 W 19 29 1014.2 - 0.0 - - - - - - -
25/05:00am 13.2 W 20 29 1014.2 - 0.0 - - - - - - -
25/04:50am 13.2 W 19 30 1013.8 - 0.0 - - - - - - -
25/04:30am 13.0 W 20 28 1013.9 - 0.0 - - - - - - -
25/04:24am 13.1 W 17 28 1013.8 - 0.0 - - - - - - -
25/04:00am 13.2 W 18 26 1014.1 - 0.0 - - - - - - -
25/03:43am 13.5 W 19 29 1014.0 - 0.0 - - - - - - -
25/03:30am 13.6 W 23 30 1013.8 - 0.0 - - - - - - -
25/03:03am 13.7 W 22 32 1013.6 - 0.0 - - - - - - -
25/03:00am 13.7 W 23 32 1013.5 - 0.0 - - - - - - -
25/02:57am 13.7 W 22 32 1013.5 - 0.0 - - - - - - -
25/02:30am 13.6 W 22 29 1013.7 - 0.0 - - - - - - -
25/02:00am 13.6 W 20 28 1013.6 - 0.0 - - - - - - -
25/01:30am 13.8 W 21 32 1013.5 - 0.0 - - - - - - -
25/01:02am 13.9 W 23 33 1013.4 - 0.0 - - - - - - -
25/01:00am 13.8 W 24 33 1013.3 - 0.0 - - - - - - -
25/12:30am 14.0 W 21 31 1013.2 - 0.0 - - - - - - -
25/12:11am 14.0 W 20 30 1013.4 - 0.0 - - - - - - -
25/12:00am 14.2 W 19 27 1013.3 - 0.0 - - - - - - -
 
Date/Time
EDT
Temp

°C
Wind Pressure Rain
since 9am
mm
Weather Cloud Vis
km
Sea
Height
m
Swell
Dir
 
Speed
knots
Gust
knots
hPa Trend Height
m
Period
s
Dir
24/11:36pm 14.3 W 19 29 1013.4 - 0.0 - - - - - - -
24/11:30pm 14.5 W 20 29 1013.3 - 0.0 - - - - - - -
24/11:05pm 14.5 W 21 31 1013.1 - 0.0 - - - - - - -
24/11:00pm 14.5 W 20 28 1013.2 - 0.0 - - - - - - -
24/10:44pm 14.4 W 19 30 1012.9 - 0.0 - - - - - - -
24/10:30pm 14.4 W 19 27 1012.9 - 0.0 - - - - - - -
24/10:15pm 14.5 W 19 29 1012.9 - 0.0 - - - - - - -
24/10:00pm 14.6 W 18 25 1012.8 - 0.0 - - - - - - -
24/09:30pm 14.7 W 18 29 1012.8 - 0.0 - - - - - - -
24/09:06pm 14.7 W 18 28 1012.6 - 0.0 - - - - - - -
24/09:00pm 14.7 W 22 30 1012.6 - 0.0 - - - - - - -
24/08:42pm 15.1 W 21 31 1012.2 - 0.0 - - - - - - -
24/08:30pm 15.6 W 21 28 1012.3 - 0.0 - - - - - - -
24/08:00pm 16.7 W 21 32 1011.2 - 0.0 - - - - - - -
24/07:32pm 18.6 W 18 28 1010.6 - 0.0 - - - - - - -
24/07:30pm 18.6 W 18 25 1010.5 - 0.0 - - - - - - -
24/07:00pm 18.3 W 17 23 1010.3 - 0.0 - - - - - - -
24/06:30pm 18.7 W 18 25 1009.9 - 0.0 - - - - - - -
24/06:15pm 19.1 W 16 26 1010.1 - 0.0 - - - - - - -
24/06:00pm 19.5 W 16 24 1009.8 - 0.0 - - - - - - -
24/05:45pm 19.5 W 15 25 1010.1 - 0.0 - - - - - - -
24/05:30pm 20.3 W 16 24 1009.8 - 0.0 - - - - - - -
24/05:00pm 20.9 WNW 16 27 1009.8 - 0.0 - - - - - - -
24/04:50pm 21.1 W 15 25 1009.6 - 0.0 - - - - - - -
24/04:30pm 21.5 W 8 18 1009.6 - 0.0 - - - - - - -
24/04:00pm 20.5 W 9 19 1009.8 - 0.0 - - - - - - -
24/03:30pm 18.0 W 5 14 1009.7 - 0.0 - - - - - - -
24/03:00pm 16.0 NE 9 10 1009.6 - 0.0 - - - - - - -
24/02:30pm 16.0 NE 9 11 1009.9 - 0.0 - - - - - - -
24/02:00pm 16.5 NE 9 11 1010.3 - 0.0 - - - - - - -
24/01:30pm 16.2 NNE 10 11 1010.5 - 0.0 - - - - - - -
24/01:00pm 15.9 NE 12 15 1010.6 - 0.0 - - - - - - -
24/12:30pm 15.8 NE 16 18 1010.7 - 0.0 - - - - - - -
24/12:00pm 15.8 NNE 15 17 1011.2 - 0.0 - - - - - - -
24/11:30am 15.7 NNE 18 20 1011.4 - 0.0 - - - - - - -
24/11:00am 15.2 NNE 17 20 1012.0 - 0.0 - - - - - - -
24/10:30am 15.2 NNE 19 22 1012.2 - 0.0 - - - - - - -
24/10:00am 15.0 NE 19 22 1012.6 - 0.0 - - - - - - -
24/09:30am 14.8 NE 21 24 1012.7 - 0.0 - - - - - - -
24/09:00am 14.7 NE 22 25 1013.0 - 0.8 - - - - - - -
24/08:30am 14.7 NE 24 27 1013.2 - 0.8 - - - - - - -
24/08:00am 14.7 NE 25 30 1013.3 - 0.6 - - - - - - -
24/07:30am 14.6 NE 26 28 1013.6 - 0.6 - - - - - - -
24/07:00am 14.5 NE 28 33 1013.6 - 0.4 - - - - - - -
24/06:30am 14.5 NE 29 34 1013.6 - 0.4 - - - - - - -
24/06:00am 14.5 ENE 33 38 1013.3 - 0.4 - - - - - - -
24/05:30am 14.4 ENE 34 39 1013.3 - 0.4 - - - - - - -
24/05:00am 14.3 ENE 34 38 1013.6 - 0.4 - - - - - - -
24/04:30am 14.3 ENE 36 42 1013.5 - 0.2 - - - - - - -
24/04:00am 14.1 ENE 34 39 1013.8 - 0.2 - - - - - - -
24/03:30am 14.0 ENE 35 40 1014.5 - 0.2 - - - - - - -
24/03:00am 13.8 ENE 34 39 1015.2 - 0.2 - - - - - - -
24/02:30am 13.7 ENE 39 44 1015.2 - 0.2 - - - - - - -
24/02:00am 13.5 ENE 36 40 1016.1 - 0.0 - - - - - - -
24/01:30am 13.5 ENE 38 45 1016.7 - 0.0 - - - - - - -
24/01:00am 13.6 ENE 39 45 1017.0 - 0.0 - - - - - - -
24/12:30am 13.7 ENE 41 46 1017.3 - 0.0 - - - - - - -
24/12:00am 13.6 ENE 42 47 1017.5 - 0.0 - - - - - - -
 
Date/Time
EDT
Temp

°C
Wind Pressure Rain
since 9am
mm
Weather Cloud Vis
km
Sea
Height
m
Swell
Dir
 
Speed
knots
Gust
knots
hPa Trend Height
m
Period
s
Dir
23/11:30pm 13.6 ENE 40 46 1017.8 - 0.0 - - - - - - -
23/11:00pm 13.5 ENE 38 43 1018.3 - 0.0 - - - - - - -
23/10:30pm 13.5 ENE 40 44 1018.5 - 0.0 - - - - - - -
23/10:00pm 13.5 ENE 38 43 1019.0 - 0.0 - - - - - - -
23/09:30pm 13.5 ENE 37 41 1019.3 - 0.0 - - - - - - -
23/09:00pm 13.5 ENE 37 43 1019.4 - 0.0 - - - - - - -
23/08:30pm 13.4 ENE 40 45 1019.3 - 0.0 - - - - - - -
23/08:00pm 13.3 ENE 39 43 1019.2 - 0.0 - - - - - - -
23/07:30pm 13.3 ENE 39 43 1019.1 - 0.0 - - - - - - -
23/07:00pm 13.4 ENE 39 44 1018.8 - 0.0 - - - - - - -
23/06:30pm 13.4 ENE 36 43 1019.0 - 0.0 - - - - - - -
23/06:00pm 13.3 ENE 35 40 1019.2 - 0.0 - - - - - - -
23/05:30pm 13.5 ENE 34 40 1019.2 - 0.0 - - - - - - -
23/05:00pm 13.5 ENE 36 41 1019.3 - 0.0 - - - - - - -
23/04:30pm 13.7 ENE 35 39 1019.4 - 0.0 - - - - - - -
23/04:00pm 13.6 ENE 33 38 1019.4 - 0.0 - - - - - - -
23/03:30pm 13.9 ENE 32 36 1019.7 - 0.0 - - - - - - -
23/03:00pm 13.8 ENE 32 37 1019.9 - 0.0 - - - - - - -
23/02:30pm 13.9 ENE 28 32 1020.4 - 0.0 - - - - - - -
23/02:00pm 13.9 ENE 29 36 1020.7 - 0.0 - - - - - - -
23/01:30pm 13.9 ENE 28 33 1020.8 - 0.0 - - - - - - -
23/01:00pm 13.8 ENE 24 28 1021.1 - 0.0 - - - - - - -
23/12:30pm 14.0 ENE 24 29 1021.2 - 0.0 - - - - - - -

Other Formats:

Comma delimited format used in spreadsheet applications
http://www.bom.gov.au/fwo/IDT60701/IDT60701.94893.axf

JavaScript Object Notation format (JSON) in row-major order
http://www.bom.gov.au/fwo/IDT60701/IDT60701.94893.json